sensor_id;sensor_type;location;lat;lon;timestamp;P1;durP1;ratioP1;P2;durP2;ratioP2
7531;SDS011;3807;49.030;8.714;2022-11-20T00:02:24;10.50;;;6.70;;
7531;SDS011;3807;49.030;8.714;2022-11-20T00:04:49;10.27;;;6.73;;
7531;SDS011;3807;49.030;8.714;2022-11-20T00:07:14;13.73;;;7.07;;
7531;SDS011;3807;49.030;8.714;2022-11-20T00:09:40;14.13;;;7.97;;
7531;SDS011;3807;49.030;8.714;2022-11-20T00:12:05;12.40;;;7.47;;
7531;SDS011;3807;49.030;8.714;2022-11-20T00:14:31;11.73;;;7.43;;
7531;SDS011;3807;49.030;8.714;2022-11-20T00:16:56;10.00;;;6.83;;
7531;SDS011;3807;49.030;8.714;2022-11-20T00:19:21;10.13;;;6.93;;
7531;SDS011;3807;49.030;8.714;2022-11-20T00:21:47;12.70;;;6.73;;
7531;SDS011;3807;49.030;8.714;2022-11-20T00:24:12;11.00;;;7.00;;
7531;SDS011;3807;49.030;8.714;2022-11-20T00:26:38;9.63;;;6.30;;
7531;SDS011;3807;49.030;8.714;2022-11-20T00:29:03;13.63;;;7.33;;
7531;SDS011;3807;49.030;8.714;2022-11-20T00:31:29;10.37;;;6.80;;
7531;SDS011;3807;49.030;8.714;2022-11-20T00:33:55;11.53;;;7.80;;
7531;SDS011;3807;49.030;8.714;2022-11-20T00:36:24;10.20;;;6.80;;
7531;SDS011;3807;49.030;8.714;2022-11-20T00:38:52;12.07;;;7.50;;
7531;SDS011;3807;49.030;8.714;2022-11-20T00:41:19;11.50;;;7.00;;
7531;SDS011;3807;49.030;8.714;2022-11-20T00:43:44;10.57;;;6.40;;
7531;SDS011;3807;49.030;8.714;2022-11-20T00:46:14;12.73;;;6.97;;
7531;SDS011;3807;49.030;8.714;2022-11-20T00:48:41;11.77;;;7.70;;
7531;SDS011;3807;49.030;8.714;2022-11-20T00:51:07;9.70;;;6.23;;
7531;SDS011;3807;49.030;8.714;2022-11-20T00:53:32;11.30;;;6.63;;
7531;SDS011;3807;49.030;8.714;2022-11-20T00:55:58;12.70;;;7.70;;
7531;SDS011;3807;49.030;8.714;2022-11-20T00:58:28;10.90;;;7.03;;
7531;SDS011;3807;49.030;8.714;2022-11-20T01:01:05;14.10;;;7.40;;
7531;SDS011;3807;49.030;8.714;2022-11-20T01:03:32;12.40;;;7.90;;
7531;SDS011;3807;49.030;8.714;2022-11-20T01:06:03;11.87;;;7.00;;
7531;SDS011;3807;49.030;8.714;2022-11-20T01:08:31;13.20;;;7.33;;
7531;SDS011;3807;49.030;8.714;2022-11-20T01:11:01;13.27;;;8.40;;
7531;SDS011;3807;49.030;8.714;2022-11-20T01:13:27;10.27;;;6.87;;
7531;SDS011;3807;49.030;8.714;2022-11-20T01:16:12;13.90;;;8.37;;
7531;SDS011;3807;49.030;8.714;2022-11-20T01:18:40;10.60;;;6.23;;
7531;SDS011;3807;49.030;8.714;2022-11-20T01:21:08;11.10;;;7.10;;
7531;SDS011;3807;49.030;8.714;2022-11-20T01:23:37;14.50;;;8.00;;
7531;SDS011;3807;49.030;8.714;2022-11-20T01:26:04;10.87;;;6.93;;
7531;SDS011;3807;49.030;8.714;2022-11-20T01:28:32;13.07;;;6.73;;
7531;SDS011;3807;49.030;8.714;2022-11-20T01:30:58;14.83;;;8.03;;
7531;SDS011;3807;49.030;8.714;2022-11-20T01:33:24;13.47;;;8.00;;
7531;SDS011;3807;49.030;8.714;2022-11-20T01:35:49;12.30;;;8.57;;
7531;SDS011;3807;49.030;8.714;2022-11-20T01:38:15;11.80;;;7.47;;
7531;SDS011;3807;49.030;8.714;2022-11-20T01:40:41;13.27;;;7.50;;
7531;SDS011;3807;49.030;8.714;2022-11-20T01:43:14;10.07;;;7.23;;
7531;SDS011;3807;49.030;8.714;2022-11-20T01:45:52;11.30;;;7.00;;
7531;SDS011;3807;49.030;8.714;2022-11-20T01:48:23;11.47;;;7.43;;
7531;SDS011;3807;49.030;8.714;2022-11-20T01:50:52;9.97;;;7.20;;
7531;SDS011;3807;49.030;8.714;2022-11-20T01:53:18;13.83;;;7.63;;
7531;SDS011;3807;49.030;8.714;2022-11-20T01:55:50;11.30;;;8.13;;
7531;SDS011;3807;49.030;8.714;2022-11-20T01:58:18;11.07;;;7.07;;
7531;SDS011;3807;49.030;8.714;2022-11-20T02:00:46;11.10;;;6.77;;
7531;SDS011;3807;49.030;8.714;2022-11-20T02:03:12;12.43;;;6.97;;
7531;SDS011;3807;49.030;8.714;2022-11-20T02:05:43;13.10;;;7.27;;
7531;SDS011;3807;49.030;8.714;2022-11-20T02:08:14;12.83;;;6.93;;
7531;SDS011;3807;49.030;8.714;2022-11-20T02:10:40;11.10;;;6.60;;
7531;SDS011;3807;49.030;8.714;2022-11-20T02:13:06;10.60;;;7.03;;
7531;SDS011;3807;49.030;8.714;2022-11-20T02:15:50;10.97;;;7.70;;
7531;SDS011;3807;49.030;8.714;2022-11-20T02:18:16;10.63;;;6.83;;
7531;SDS011;3807;49.030;8.714;2022-11-20T02:20:44;12.10;;;7.00;;
7531;SDS011;3807;49.030;8.714;2022-11-20T02:23:12;8.70;;;6.30;;
7531;SDS011;3807;49.030;8.714;2022-11-20T02:25:44;12.53;;;6.90;;
7531;SDS011;3807;49.030;8.714;2022-11-20T02:28:12;12.10;;;6.70;;
7531;SDS011;3807;49.030;8.714;2022-11-20T02:30:37;10.20;;;6.50;;
7531;SDS011;3807;49.030;8.714;2022-11-20T02:33:02;12.47;;;6.70;;
7531;SDS011;3807;49.030;8.714;2022-11-20T02:37:54;10.93;;;6.77;;
7531;SDS011;3807;49.030;8.714;2022-11-20T02:40:21;12.10;;;6.50;;
7531;SDS011;3807;49.030;8.714;2022-11-20T02:42:47;7.97;;;4.87;;
7531;SDS011;3807;49.030;8.714;2022-11-20T02:45:16;6.47;;;4.40;;
7531;SDS011;3807;49.030;8.714;2022-11-20T02:47:41;8.97;;;6.07;;
7531;SDS011;3807;49.030;8.714;2022-11-20T02:50:07;11.27;;;6.60;;
7531;SDS011;3807;49.030;8.714;2022-11-20T02:52:32;13.60;;;6.97;;
7531;SDS011;3807;49.030;8.714;2022-11-20T02:54:58;13.30;;;5.10;;
7531;SDS011;3807;49.030;8.714;2022-11-20T02:57:23;8.93;;;5.80;;
7531;SDS011;3807;49.030;8.714;2022-11-20T02:59:48;12.50;;;6.80;;
7531;SDS011;3807;49.030;8.714;2022-11-20T03:02:14;7.57;;;5.70;;
7531;SDS011;3807;49.030;8.714;2022-11-20T03:04:39;8.23;;;4.70;;
7531;SDS011;3807;49.030;8.714;2022-11-20T03:07:04;7.93;;;5.43;;
7531;SDS011;3807;49.030;8.714;2022-11-20T03:09:30;11.50;;;6.27;;
7531;SDS011;3807;49.030;8.714;2022-11-20T03:11:56;12.30;;;5.80;;
7531;SDS011;3807;49.030;8.714;2022-11-20T03:14:21;9.83;;;5.43;;
7531;SDS011;3807;49.030;8.714;2022-11-20T03:16:46;13.17;;;6.13;;
7531;SDS011;3807;49.030;8.714;2022-11-20T03:19:12;8.43;;;5.87;;
7531;SDS011;3807;49.030;8.714;2022-11-20T03:21:37;6.43;;;4.70;;
7531;SDS011;3807;49.030;8.714;2022-11-20T03:24:03;7.63;;;4.67;;
7531;SDS011;3807;49.030;8.714;2022-11-20T03:26:29;5.80;;;4.67;;
7531;SDS011;3807;49.030;8.714;2022-11-20T03:28:55;7.20;;;5.23;;
7531;SDS011;3807;49.030;8.714;2022-11-20T03:31:24;8.37;;;5.63;;
7531;SDS011;3807;49.030;8.714;2022-11-20T03:33:50;9.17;;;5.20;;
7531;SDS011;3807;49.030;8.714;2022-11-20T03:36:16;10.73;;;5.50;;
7531;SDS011;3807;49.030;8.714;2022-11-20T03:38:43;8.30;;;4.43;;
7531;SDS011;3807;49.030;8.714;2022-11-20T03:41:13;10.70;;;5.13;;
7531;SDS011;3807;49.030;8.714;2022-11-20T03:43:46;8.97;;;4.27;;
7531;SDS011;3807;49.030;8.714;2022-11-20T03:46:12;8.37;;;4.67;;
7531;SDS011;3807;49.030;8.714;2022-11-20T03:48:37;6.80;;;4.20;;
7531;SDS011;3807;49.030;8.714;2022-11-20T03:54:02;6.10;;;3.47;;
7531;SDS011;3807;49.030;8.714;2022-11-20T03:56:30;9.03;;;4.47;;
7531;SDS011;3807;49.030;8.714;2022-11-20T03:58:57;6.47;;;4.33;;
7531;SDS011;3807;49.030;8.714;2022-11-20T04:01:25;5.37;;;3.17;;
7531;SDS011;3807;49.030;8.714;2022-11-20T04:03:52;4.47;;;3.57;;
7531;SDS011;3807;49.030;8.714;2022-11-20T04:06:20;7.50;;;4.10;;
7531;SDS011;3807;49.030;8.714;2022-11-20T04:08:47;6.00;;;4.30;;
7531;SDS011;3807;49.030;8.714;2022-11-20T04:13:47;4.27;;;3.33;;
7531;SDS011;3807;49.030;8.714;2022-11-20T04:16:17;5.03;;;3.77;;
7531;SDS011;3807;49.030;8.714;2022-11-20T04:18:43;4.57;;;3.50;;
7531;SDS011;3807;49.030;8.714;2022-11-20T04:21:09;5.53;;;3.90;;
7531;SDS011;3807;49.030;8.714;2022-11-20T04:23:35;4.73;;;3.20;;
7531;SDS011;3807;49.030;8.714;2022-11-20T04:26:04;6.47;;;3.63;;
7531;SDS011;3807;49.030;8.714;2022-11-20T04:28:31;5.80;;;3.17;;
7531;SDS011;3807;49.030;8.714;2022-11-20T04:31:10;7.27;;;3.63;;
7531;SDS011;3807;49.030;8.714;2022-11-20T04:33:37;4.77;;;3.43;;
7531;SDS011;3807;49.030;8.714;2022-11-20T04:36:04;4.60;;;3.23;;
7531;SDS011;3807;49.030;8.714;2022-11-20T04:38:31;5.33;;;3.43;;
7531;SDS011;3807;49.030;8.714;2022-11-20T04:41:00;3.93;;;2.93;;
7531;SDS011;3807;49.030;8.714;2022-11-20T04:43:28;3.33;;;2.40;;
7531;SDS011;3807;49.030;8.714;2022-11-20T04:45:54;3.63;;;2.90;;
7531;SDS011;3807;49.030;8.714;2022-11-20T04:48:21;9.13;;;3.07;;
7531;SDS011;3807;49.030;8.714;2022-11-20T04:50:47;3.73;;;3.10;;
7531;SDS011;3807;49.030;8.714;2022-11-20T04:53:13;5.13;;;3.23;;
7531;SDS011;3807;49.030;8.714;2022-11-20T04:55:38;5.07;;;3.23;;
7531;SDS011;3807;49.030;8.714;2022-11-20T04:58:04;6.20;;;3.00;;
7531;SDS011;3807;49.030;8.714;2022-11-20T05:00:29;4.53;;;3.20;;
7531;SDS011;3807;49.030;8.714;2022-11-20T05:02:55;6.67;;;3.23;;
7531;SDS011;3807;49.030;8.714;2022-11-20T05:05:20;5.20;;;2.73;;
7531;SDS011;3807;49.030;8.714;2022-11-20T05:07:46;4.60;;;2.30;;
7531;SDS011;3807;49.030;8.714;2022-11-20T05:10:11;4.97;;;3.40;;
7531;SDS011;3807;49.030;8.714;2022-11-20T05:12:36;5.97;;;3.30;;
7531;SDS011;3807;49.030;8.714;2022-11-20T05:15:02;5.83;;;3.23;;
7531;SDS011;3807;49.030;8.714;2022-11-20T05:17:27;3.83;;;2.73;;
7531;SDS011;3807;49.030;8.714;2022-11-20T05:19:53;5.07;;;3.90;;
7531;SDS011;3807;49.030;8.714;2022-11-20T05:22:18;4.17;;;3.13;;
7531;SDS011;3807;49.030;8.714;2022-11-20T05:24:43;4.13;;;2.80;;
7531;SDS011;3807;49.030;8.714;2022-11-20T05:27:08;4.13;;;2.90;;
7531;SDS011;3807;49.030;8.714;2022-11-20T05:29:34;3.97;;;2.70;;
7531;SDS011;3807;49.030;8.714;2022-11-20T05:31:59;2.87;;;2.27;;
7531;SDS011;3807;49.030;8.714;2022-11-20T05:34:24;3.00;;;2.03;;
7531;SDS011;3807;49.030;8.714;2022-11-20T05:36:50;3.47;;;2.60;;
7531;SDS011;3807;49.030;8.714;2022-11-20T05:39:15;3.23;;;2.70;;
7531;SDS011;3807;49.030;8.714;2022-11-20T05:41:40;3.20;;;2.40;;
7531;SDS011;3807;49.030;8.714;2022-11-20T05:44:06;5.20;;;2.13;;
7531;SDS011;3807;49.030;8.714;2022-11-20T05:46:31;3.77;;;2.43;;
7531;SDS011;3807;49.030;8.714;2022-11-20T05:48:57;5.20;;;2.50;;
7531;SDS011;3807;49.030;8.714;2022-11-20T05:51:23;3.00;;;2.27;;
7531;SDS011;3807;49.030;8.714;2022-11-20T05:53:49;6.57;;;2.33;;
7531;SDS011;3807;49.030;8.714;2022-11-20T05:56:15;2.40;;;2.00;;
7531;SDS011;3807;49.030;8.714;2022-11-20T05:58:43;2.07;;;1.87;;
7531;SDS011;3807;49.030;8.714;2022-11-20T06:01:19;2.67;;;1.93;;
7531;SDS011;3807;49.030;8.714;2022-11-20T06:03:46;5.63;;;2.00;;
7531;SDS011;3807;49.030;8.714;2022-11-20T06:06:12;2.43;;;1.30;;
7531;SDS011;3807;49.030;8.714;2022-11-20T06:08:39;2.20;;;2.00;;
7531;SDS011;3807;49.030;8.714;2022-11-20T06:11:05;2.50;;;1.93;;
7531;SDS011;3807;49.030;8.714;2022-11-20T06:13:34;3.57;;;1.80;;
7531;SDS011;3807;49.030;8.714;2022-11-20T06:16:00;4.03;;;1.93;;
7531;SDS011;3807;49.030;8.714;2022-11-20T06:18:26;2.57;;;1.83;;
7531;SDS011;3807;49.030;8.714;2022-11-20T06:21:04;1.80;;;1.50;;
7531;SDS011;3807;49.030;8.714;2022-11-20T06:23:32;3.10;;;1.73;;
7531;SDS011;3807;49.030;8.714;2022-11-20T06:26:02;3.50;;;1.83;;
7531;SDS011;3807;49.030;8.714;2022-11-20T06:28:29;2.30;;;1.70;;
7531;SDS011;3807;49.030;8.714;2022-11-20T06:30:54;7.00;;;1.50;;
7531;SDS011;3807;49.030;8.714;2022-11-20T06:33:20;2.23;;;1.60;;
7531;SDS011;3807;49.030;8.714;2022-11-20T06:35:45;4.97;;;1.67;;
7531;SDS011;3807;49.030;8.714;2022-11-20T06:38:10;2.43;;;1.70;;
7531;SDS011;3807;49.030;8.714;2022-11-20T06:40:42;1.93;;;1.20;;
7531;SDS011;3807;49.030;8.714;2022-11-20T06:43:09;2.27;;;1.70;;
7531;SDS011;3807;49.030;8.714;2022-11-20T06:45:35;2.57;;;1.67;;
7531;SDS011;3807;49.030;8.714;2022-11-20T06:48:01;3.60;;;1.77;;
7531;SDS011;3807;49.030;8.714;2022-11-20T06:50:26;2.73;;;1.60;;
7531;SDS011;3807;49.030;8.714;2022-11-20T06:52:51;6.63;;;2.20;;
7531;SDS011;3807;49.030;8.714;2022-11-20T06:55:17;3.97;;;1.80;;
7531;SDS011;3807;49.030;8.714;2022-11-20T06:57:44;4.17;;;2.00;;
7531;SDS011;3807;49.030;8.714;2022-11-20T07:00:10;2.47;;;1.63;;
7531;SDS011;3807;49.030;8.714;2022-11-20T07:02:37;3.40;;;2.27;;
7531;SDS011;3807;49.030;8.714;2022-11-20T07:05:03;2.27;;;1.93;;
7531;SDS011;3807;49.030;8.714;2022-11-20T07:07:28;7.63;;;2.00;;
7531;SDS011;3807;49.030;8.714;2022-11-20T07:09:54;3.77;;;1.77;;
7531;SDS011;3807;49.030;8.714;2022-11-20T07:12:27;2.50;;;1.60;;
7531;SDS011;3807;49.030;8.714;2022-11-20T07:14:52;2.70;;;1.80;;
7531;SDS011;3807;49.030;8.714;2022-11-20T07:17:17;2.13;;;1.60;;
7531;SDS011;3807;49.030;8.714;2022-11-20T07:19:43;1.90;;;1.40;;
7531;SDS011;3807;49.030;8.714;2022-11-20T07:22:08;1.60;;;1.50;;
7531;SDS011;3807;49.030;8.714;2022-11-20T07:24:34;1.70;;;1.30;;
7531;SDS011;3807;49.030;8.714;2022-11-20T07:26:59;2.13;;;1.63;;
7531;SDS011;3807;49.030;8.714;2022-11-20T07:29:25;2.73;;;1.70;;
7531;SDS011;3807;49.030;8.714;2022-11-20T07:31:50;1.50;;;1.40;;
7531;SDS011;3807;49.030;8.714;2022-11-20T07:34:16;10.53;;;1.40;;
7531;SDS011;3807;49.030;8.714;2022-11-20T07:36:41;1.33;;;1.23;;
7531;SDS011;3807;49.030;8.714;2022-11-20T07:39:06;2.67;;;1.60;;
7531;SDS011;3807;49.030;8.714;2022-11-20T07:41:32;4.10;;;1.60;;
7531;SDS011;3807;49.030;8.714;2022-11-20T07:43:58;1.63;;;1.53;;
7531;SDS011;3807;49.030;8.714;2022-11-20T07:46:23;2.27;;;1.90;;
7531;SDS011;3807;49.030;8.714;2022-11-20T07:48:48;2.30;;;1.20;;
7531;SDS011;3807;49.030;8.714;2022-11-20T07:51:14;3.17;;;1.57;;
7531;SDS011;3807;49.030;8.714;2022-11-20T07:53:39;1.70;;;1.40;;
7531;SDS011;3807;49.030;8.714;2022-11-20T07:56:05;2.00;;;1.50;;
7531;SDS011;3807;49.030;8.714;2022-11-20T07:58:31;3.53;;;1.50;;
7531;SDS011;3807;49.030;8.714;2022-11-20T08:00:58;2.30;;;1.90;;
7531;SDS011;3807;49.030;8.714;2022-11-20T08:03:27;1.90;;;1.80;;
7531;SDS011;3807;49.030;8.714;2022-11-20T08:05:52;1.90;;;1.60;;
7531;SDS011;3807;49.030;8.714;2022-11-20T08:08:18;2.17;;;1.80;;
7531;SDS011;3807;49.030;8.714;2022-11-20T08:10:43;1.70;;;1.50;;
7531;SDS011;3807;49.030;8.714;2022-11-20T08:13:08;2.13;;;1.60;;
7531;SDS011;3807;49.030;8.714;2022-11-20T08:15:52;1.93;;;1.50;;
7531;SDS011;3807;49.030;8.714;2022-11-20T08:18:18;3.23;;;1.53;;
7531;SDS011;3807;49.030;8.714;2022-11-20T08:20:43;2.43;;;1.57;;
7531;SDS011;3807;49.030;8.714;2022-11-20T08:23:09;3.60;;;2.00;;
7531;SDS011;3807;49.030;8.714;2022-11-20T08:25:35;2.50;;;1.70;;
7531;SDS011;3807;49.030;8.714;2022-11-20T08:28:03;3.43;;;1.80;;
7531;SDS011;3807;49.030;8.714;2022-11-20T08:30:31;2.60;;;1.70;;
7531;SDS011;3807;49.030;8.714;2022-11-20T08:33:00;2.50;;;1.80;;
7531;SDS011;3807;49.030;8.714;2022-11-20T08:35:36;1.93;;;1.60;;
7531;SDS011;3807;49.030;8.714;2022-11-20T08:38:03;2.73;;;1.77;;
7531;SDS011;3807;49.030;8.714;2022-11-20T08:40:30;7.27;;;2.17;;
7531;SDS011;3807;49.030;8.714;2022-11-20T08:42:56;5.17;;;2.13;;
7531;SDS011;3807;49.030;8.714;2022-11-20T08:45:21;2.27;;;1.90;;
7531;SDS011;3807;49.030;8.714;2022-11-20T08:47:47;2.43;;;2.03;;
7531;SDS011;3807;49.030;8.714;2022-11-20T08:50:16;2.00;;;1.83;;
7531;SDS011;3807;49.030;8.714;2022-11-20T08:52:42;2.20;;;1.73;;
7531;SDS011;3807;49.030;8.714;2022-11-20T08:55:07;2.57;;;2.37;;
7531;SDS011;3807;49.030;8.714;2022-11-20T08:57:34;3.03;;;2.60;;
7531;SDS011;3807;49.030;8.714;2022-11-20T09:00:00;6.73;;;2.60;;
7531;SDS011;3807;49.030;8.714;2022-11-20T09:02:26;3.47;;;2.77;;
7531;SDS011;3807;49.030;8.714;2022-11-20T09:04:51;4.07;;;2.33;;
7531;SDS011;3807;49.030;8.714;2022-11-20T09:07:18;4.53;;;3.00;;
7531;SDS011;3807;49.030;8.714;2022-11-20T09:09:43;5.10;;;2.43;;
7531;SDS011;3807;49.030;8.714;2022-11-20T09:12:09;5.23;;;2.83;;
7531;SDS011;3807;49.030;8.714;2022-11-20T09:14:34;4.80;;;2.63;;
7531;SDS011;3807;49.030;8.714;2022-11-20T09:16:59;4.03;;;3.40;;
7531;SDS011;3807;49.030;8.714;2022-11-20T09:19:25;5.13;;;3.47;;
7531;SDS011;3807;49.030;8.714;2022-11-20T09:21:50;1.50;;;1.27;;
7531;SDS011;3807;49.030;8.714;2022-11-20T09:24:16;3.53;;;2.60;;
7531;SDS011;3807;49.030;8.714;2022-11-20T09:26:42;4.10;;;2.97;;
7531;SDS011;3807;49.030;8.714;2022-11-20T09:29:08;3.60;;;3.03;;
7531;SDS011;3807;49.030;8.714;2022-11-20T09:31:33;5.47;;;2.23;;
7531;SDS011;3807;49.030;8.714;2022-11-20T09:33:58;4.17;;;3.10;;
7531;SDS011;3807;49.030;8.714;2022-11-20T09:36:24;6.30;;;3.37;;
7531;SDS011;3807;49.030;8.714;2022-11-20T09:38:49;4.77;;;3.93;;
7531;SDS011;3807;49.030;8.714;2022-11-20T09:55:24;5.43;;;3.53;;
7531;SDS011;3807;49.030;8.714;2022-11-20T09:57:51;5.10;;;3.77;;
7531;SDS011;3807;49.030;8.714;2022-11-20T10:00:17;12.00;;;6.07;;
7531;SDS011;3807;49.030;8.714;2022-11-20T10:10:46;4.60;;;3.13;;
7531;SDS011;3807;49.030;8.714;2022-11-20T10:13:32;4.67;;;3.73;;
7531;SDS011;3807;49.030;8.714;2022-11-20T10:18:48;5.33;;;3.80;;
7531;SDS011;3807;49.030;8.714;2022-11-20T10:27:38;4.27;;;3.00;;
7531;SDS011;3807;49.030;8.714;2022-11-20T10:30:13;5.50;;;3.57;;
7531;SDS011;3807;49.030;8.714;2022-11-20T10:32:42;8.33;;;3.63;;
7531;SDS011;3807;49.030;8.714;2022-11-20T10:37:40;8.33;;;4.80;;
7531;SDS011;3807;49.030;8.714;2022-11-20T10:42:51;7.50;;;4.27;;
7531;SDS011;3807;49.030;8.714;2022-11-20T10:47:49;7.03;;;3.60;;
7531;SDS011;3807;49.030;8.714;2022-11-20T10:50:19;4.83;;;3.93;;
7531;SDS011;3807;49.030;8.714;2022-11-20T10:55:39;7.20;;;5.17;;
7531;SDS011;3807;49.030;8.714;2022-11-20T10:58:10;10.70;;;4.80;;
7531;SDS011;3807;49.030;8.714;2022-11-20T11:00:47;8.87;;;5.10;;
7531;SDS011;3807;49.030;8.714;2022-11-20T11:03:28;7.53;;;4.37;;
7531;SDS011;3807;49.030;8.714;2022-11-20T11:09:16;15.43;;;6.67;;
7531;SDS011;3807;49.030;8.714;2022-11-20T11:11:46;11.07;;;5.67;;
7531;SDS011;3807;49.030;8.714;2022-11-20T11:14:13;12.63;;;6.00;;
7531;SDS011;3807;49.030;8.714;2022-11-20T11:16:49;10.80;;;5.10;;
7531;SDS011;3807;49.030;8.714;2022-11-20T11:19:15;10.60;;;4.83;;
7531;SDS011;3807;49.030;8.714;2022-11-20T11:21:47;5.00;;;4.30;;
7531;SDS011;3807;49.030;8.714;2022-11-20T11:24:28;7.17;;;3.10;;
7531;SDS011;3807;49.030;8.714;2022-11-20T11:26:59;6.00;;;3.20;;
7531;SDS011;3807;49.030;8.714;2022-11-20T11:29:30;4.20;;;2.47;;
7531;SDS011;3807;49.030;8.714;2022-11-20T11:32:06;8.37;;;3.50;;
7531;SDS011;3807;49.030;8.714;2022-11-20T11:34:59;3.83;;;1.93;;
7531;SDS011;3807;49.030;8.714;2022-11-20T11:37:25;4.67;;;2.20;;
7531;SDS011;3807;49.030;8.714;2022-11-20T11:39:59;3.77;;;2.70;;
7531;SDS011;3807;49.030;8.714;2022-11-20T11:42:25;4.07;;;2.17;;
7531;SDS011;3807;49.030;8.714;2022-11-20T11:44:53;1.90;;;1.23;;
7531;SDS011;3807;49.030;8.714;2022-11-20T11:47:32;4.63;;;2.70;;
7531;SDS011;3807;49.030;8.714;2022-11-20T11:55:26;5.27;;;2.53;;
7531;SDS011;3807;49.030;8.714;2022-11-20T12:00:36;5.33;;;2.77;;
7531;SDS011;3807;49.030;8.714;2022-11-20T12:05:45;1.40;;;1.20;;
7531;SDS011;3807;49.030;8.714;2022-11-20T12:08:22;9.80;;;2.33;;
7531;SDS011;3807;49.030;8.714;2022-11-20T12:11:06;3.13;;;2.40;;
7531;SDS011;3807;49.030;8.714;2022-11-20T12:13:41;1.87;;;1.70;;
7531;SDS011;3807;49.030;8.714;2022-11-20T12:16:14;5.23;;;2.77;;
7531;SDS011;3807;49.030;8.714;2022-11-20T12:18:42;6.33;;;2.33;;
7531;SDS011;3807;49.030;8.714;2022-11-20T12:24:00;6.00;;;2.53;;
7531;SDS011;3807;49.030;8.714;2022-11-20T12:43:21;3.90;;;2.23;;
7531;SDS011;3807;49.030;8.714;2022-11-20T12:49:36;3.13;;;1.77;;
7531;SDS011;3807;49.030;8.714;2022-11-20T12:55:02;5.57;;;2.30;;
7531;SDS011;3807;49.030;8.714;2022-11-20T12:58:25;5.67;;;1.90;;
7531;SDS011;3807;49.030;8.714;2022-11-20T13:00:54;3.30;;;1.83;;
7531;SDS011;3807;49.030;8.714;2022-11-20T13:03:37;8.67;;;2.13;;
7531;SDS011;3807;49.030;8.714;2022-11-20T13:08:48;4.77;;;1.80;;
7531;SDS011;3807;49.030;8.714;2022-11-20T13:16:40;5.90;;;1.60;;
7531;SDS011;3807;49.030;8.714;2022-11-20T13:19:16;4.80;;;1.50;;
7531;SDS011;3807;49.030;8.714;2022-11-20T13:21:43;1.57;;;1.00;;
7531;SDS011;3807;49.030;8.714;2022-11-20T13:30:12;4.00;;;1.60;;
7531;SDS011;3807;49.030;8.714;2022-11-20T13:35:32;2.90;;;1.30;;
7531;SDS011;3807;49.030;8.714;2022-11-20T13:38:00;3.73;;;1.33;;
7531;SDS011;3807;49.030;8.714;2022-11-20T13:40:26;2.40;;;1.13;;
7531;SDS011;3807;49.030;8.714;2022-11-20T13:43:04;3.07;;;1.30;;
7531;SDS011;3807;49.030;8.714;2022-11-20T13:45:40;5.57;;;1.60;;
7531;SDS011;3807;49.030;8.714;2022-11-20T13:48:22;1.73;;;1.23;;
7531;SDS011;3807;49.030;8.714;2022-11-20T13:54:04;2.27;;;1.43;;
7531;SDS011;3807;49.030;8.714;2022-11-20T13:56:53;2.23;;;1.20;;
7531;SDS011;3807;49.030;8.714;2022-11-20T14:02:10;1.93;;;1.30;;
7531;SDS011;3807;49.030;8.714;2022-11-20T14:04:41;1.23;;;1.10;;
7531;SDS011;3807;49.030;8.714;2022-11-20T14:07:10;1.50;;;1.20;;
7531;SDS011;3807;49.030;8.714;2022-11-20T14:09:36;1.07;;;0.93;;
7531;SDS011;3807;49.030;8.714;2022-11-20T14:12:02;3.07;;;1.40;;
7531;SDS011;3807;49.030;8.714;2022-11-20T14:14:30;2.07;;;1.40;;
7531;SDS011;3807;49.030;8.714;2022-11-20T14:17:08;2.30;;;1.07;;
7531;SDS011;3807;49.030;8.714;2022-11-20T14:19:41;7.00;;;1.70;;
7531;SDS011;3807;49.030;8.714;2022-11-20T14:22:14;3.62;;;1.37;;
7531;SDS011;3807;49.030;8.714;2022-11-20T14:24:46;1.37;;;1.27;;
7531;SDS011;3807;49.030;8.714;2022-11-20T14:27:13;3.10;;;1.50;;
7531;SDS011;3807;49.030;8.714;2022-11-20T14:29:41;4.10;;;1.47;;
7531;SDS011;3807;49.030;8.714;2022-11-20T14:32:08;1.93;;;1.20;;
7531;SDS011;3807;49.030;8.714;2022-11-20T14:34:37;3.20;;;1.30;;
7531;SDS011;3807;49.030;8.714;2022-11-20T14:37:05;6.13;;;1.77;;
7531;SDS011;3807;49.030;8.714;2022-11-20T14:39:36;2.33;;;1.30;;
7531;SDS011;3807;49.030;8.714;2022-11-20T14:42:10;4.20;;;1.33;;
7531;SDS011;3807;49.030;8.714;2022-11-20T14:44:40;6.03;;;1.30;;
7531;SDS011;3807;49.030;8.714;2022-11-20T14:47:08;2.83;;;1.50;;
7531;SDS011;3807;49.030;8.714;2022-11-20T14:49:36;3.27;;;2.10;;
7531;SDS011;3807;49.030;8.714;2022-11-20T14:54:48;5.07;;;1.50;;
7531;SDS011;3807;49.030;8.714;2022-11-20T14:57:34;5.53;;;1.47;;
7531;SDS011;3807;49.030;8.714;2022-11-20T15:02:42;2.23;;;1.37;;
7531;SDS011;3807;49.030;8.714;2022-11-20T15:05:08;6.20;;;1.50;;
7531;SDS011;3807;49.030;8.714;2022-11-20T15:07:37;2.03;;;1.30;;
7531;SDS011;3807;49.030;8.714;2022-11-20T15:12:47;3.07;;;1.53;;
7531;SDS011;3807;49.030;8.714;2022-11-20T15:15:23;2.93;;;1.07;;
7531;SDS011;3807;49.030;8.714;2022-11-20T15:17:57;1.27;;;1.10;;
7531;SDS011;3807;49.030;8.714;2022-11-20T15:20:25;1.57;;;1.20;;
7531;SDS011;3807;49.030;8.714;2022-11-20T15:22:52;2.23;;;1.20;;
7531;SDS011;3807;49.030;8.714;2022-11-20T15:25:18;2.57;;;1.27;;
7531;SDS011;3807;49.030;8.714;2022-11-20T15:27:44;1.77;;;1.20;;
7531;SDS011;3807;49.030;8.714;2022-11-20T15:30:18;2.67;;;1.40;;
7531;SDS011;3807;49.030;8.714;2022-11-20T15:32:45;2.27;;;1.20;;
7531;SDS011;3807;49.030;8.714;2022-11-20T15:35:11;3.30;;;1.43;;
7531;SDS011;3807;49.030;8.714;2022-11-20T15:37:37;1.90;;;1.00;;
7531;SDS011;3807;49.030;8.714;2022-11-20T15:40:04;2.80;;;1.50;;
7531;SDS011;3807;49.030;8.714;2022-11-20T15:42:30;6.10;;;1.50;;
7531;SDS011;3807;49.030;8.714;2022-11-20T15:44:59;3.00;;;1.40;;
7531;SDS011;3807;49.030;8.714;2022-11-20T15:47:35;1.77;;;1.23;;
7531;SDS011;3807;49.030;8.714;2022-11-20T15:50:01;3.33;;;1.20;;
7531;SDS011;3807;49.030;8.714;2022-11-20T15:52:27;2.07;;;1.33;;
7531;SDS011;3807;49.030;8.714;2022-11-20T15:54:52;4.13;;;1.40;;
7531;SDS011;3807;49.030;8.714;2022-11-20T15:57:17;1.83;;;1.23;;
7531;SDS011;3807;49.030;8.714;2022-11-20T15:59:43;1.23;;;1.00;;
7531;SDS011;3807;49.030;8.714;2022-11-20T16:02:09;3.23;;;1.50;;
7531;SDS011;3807;49.030;8.714;2022-11-20T16:04:35;2.20;;;1.30;;
7531;SDS011;3807;49.030;8.714;2022-11-20T16:07:01;1.87;;;1.33;;
7531;SDS011;3807;49.030;8.714;2022-11-20T16:09:26;2.00;;;1.27;;
7531;SDS011;3807;49.030;8.714;2022-11-20T16:11:51;2.17;;;1.30;;
7531;SDS011;3807;49.030;8.714;2022-11-20T16:14:17;3.17;;;1.37;;
7531;SDS011;3807;49.030;8.714;2022-11-20T16:17:01;2.63;;;1.30;;
7531;SDS011;3807;49.030;8.714;2022-11-20T16:19:26;3.57;;;2.47;;
7531;SDS011;3807;49.030;8.714;2022-11-20T16:21:51;2.13;;;1.57;;
7531;SDS011;3807;49.030;8.714;2022-11-20T16:24:17;2.07;;;1.60;;
7531;SDS011;3807;49.030;8.714;2022-11-20T16:26:42;1.20;;;1.10;;
7531;SDS011;3807;49.030;8.714;2022-11-20T16:29:08;3.50;;;1.43;;
7531;SDS011;3807;49.030;8.714;2022-11-20T16:31:35;2.73;;;1.43;;
7531;SDS011;3807;49.030;8.714;2022-11-20T16:34:02;3.50;;;1.40;;
7531;SDS011;3807;49.030;8.714;2022-11-20T16:36:29;1.83;;;1.37;;
7531;SDS011;3807;49.030;8.714;2022-11-20T16:38:57;1.50;;;1.23;;
7531;SDS011;3807;49.030;8.714;2022-11-20T16:41:24;3.63;;;2.47;;
7531;SDS011;3807;49.030;8.714;2022-11-20T16:43:52;6.93;;;3.30;;
7531;SDS011;3807;49.030;8.714;2022-11-20T16:46:22;3.60;;;2.50;;
7531;SDS011;3807;49.030;8.714;2022-11-20T16:48:52;6.27;;;2.93;;
7531;SDS011;3807;49.030;8.714;2022-11-20T16:51:19;6.90;;;3.40;;
7531;SDS011;3807;49.030;8.714;2022-11-20T16:53:44;6.87;;;3.57;;
7531;SDS011;3807;49.030;8.714;2022-11-20T16:56:11;5.77;;;3.40;;
7531;SDS011;3807;49.030;8.714;2022-11-20T16:58:40;8.50;;;3.57;;
7531;SDS011;3807;49.030;8.714;2022-11-20T17:01:08;5.87;;;3.73;;
7531;SDS011;3807;49.030;8.714;2022-11-20T17:03:41;7.87;;;4.20;;
7531;SDS011;3807;49.030;8.714;2022-11-20T17:06:14;5.77;;;3.93;;
7531;SDS011;3807;49.030;8.714;2022-11-20T17:08:45;7.70;;;3.40;;
7531;SDS011;3807;49.030;8.714;2022-11-20T17:11:11;6.27;;;3.93;;
7531;SDS011;3807;49.030;8.714;2022-11-20T17:13:39;8.23;;;4.30;;
7531;SDS011;3807;49.030;8.714;2022-11-20T17:16:05;3.47;;;2.40;;
7531;SDS011;3807;49.030;8.714;2022-11-20T17:18:32;4.87;;;3.23;;
7531;SDS011;3807;49.030;8.714;2022-11-20T17:20:58;3.47;;;2.50;;